createdAt,value
2017-01-30T00:00:15.228Z,1010.54
2017-01-30T00:01:15.205Z,1010.53
2017-01-30T00:02:15.177Z,1010.52
2017-01-30T00:03:15.152Z,1010.49
2017-01-30T00:04:15.128Z,1010.5
2017-01-30T00:05:15.102Z,1010.4
2017-01-30T00:06:15.074Z,1010.44
2017-01-30T00:07:15.050Z,1010.44
2017-01-30T00:08:15.022Z,1010.42
2017-01-30T00:09:14.999Z,1010.37
2017-01-30T00:10:14.972Z,1010.37
2017-01-30T00:11:14.946Z,1010.34
2017-01-30T00:12:14.923Z,1010.32
2017-01-30T00:13:14.896Z,1010.28
2017-01-30T00:14:14.871Z,1010.31
2017-01-30T00:15:14.844Z,1010.35
2017-01-30T00:16:14.820Z,1010.2
2017-01-30T00:17:14.794Z,1010.19
2017-01-30T00:18:14.799Z,1010.22
2017-01-30T00:19:14.743Z,1010.19
2017-01-30T00:20:14.717Z,1010.15
2017-01-30T00:21:14.695Z,1010.13
2017-01-30T00:22:14.666Z,1010.12
2017-01-30T00:23:14.643Z,1010.06
2017-01-30T00:24:14.619Z,1010.07
2017-01-30T00:25:14.590Z,1010.08
2017-01-30T00:26:14.566Z,1010.08
2017-01-30T00:27:14.541Z,1010.06
2017-01-30T00:28:14.513Z,1010.06
2017-01-30T00:29:14.488Z,1010.04
2017-01-30T00:30:14.457Z,1010.07
2017-01-30T00:31:14.438Z,1010.01
2017-01-30T00:32:14.412Z,1010.01
2017-01-30T00:33:14.385Z,1009.97
2017-01-30T00:34:14.359Z,1009.91
2017-01-30T00:35:14.332Z,1009.93
2017-01-30T00:36:14.311Z,1009.9
2017-01-30T00:37:14.287Z,1009.89
2017-01-30T00:38:14.263Z,1009.84
2017-01-30T00:39:14.238Z,1009.87
2017-01-30T00:40:14.207Z,1009.85
2017-01-30T00:41:14.184Z,1009.85
2017-01-30T00:42:14.157Z,1009.86
2017-01-30T00:43:14.130Z,1009.84
2017-01-30T00:44:14.105Z,1009.83
2017-01-30T00:45:14.083Z,1009.81
2017-01-30T00:46:14.057Z,1009.78
2017-01-30T00:47:14.031Z,1009.78
2017-01-30T00:48:14.005Z,1009.8
2017-01-30T00:49:13.978Z,1009.78
2017-01-30T00:50:13.952Z,1009.82
2017-01-30T00:51:13.976Z,1009.77
2017-01-30T00:52:13.904Z,1009.76
2017-01-30T00:53:13.886Z,1009.74
2017-01-30T00:54:13.853Z,1009.74
2017-01-30T00:55:13.829Z,1009.67
2017-01-30T00:56:13.801Z,1009.66
2017-01-30T00:57:13.777Z,1009.71
2017-01-30T00:58:13.754Z,1009.72
2017-01-30T00:59:13.722Z,1009.72
2017-01-30T01:00:13.701Z,1009.67
2017-01-30T01:01:13.675Z,1009.69
2017-01-30T01:02:13.649Z,1009.66
2017-01-30T01:03:13.622Z,1009.61
2017-01-30T01:04:13.600Z,1009.62
2017-01-30T01:05:14.028Z,1009.64
2017-01-30T01:06:13.546Z,1009.59
2017-01-30T01:07:13.520Z,1009.57
2017-01-30T01:08:13.497Z,1009.56
2017-01-30T01:09:13.472Z,1009.57
2017-01-30T01:10:13.445Z,1009.53
2017-01-30T01:11:13.421Z,1009.53
2017-01-30T01:12:13.396Z,1009.47
2017-01-30T01:13:13.371Z,1009.48
2017-01-30T01:14:13.347Z,1009.47
2017-01-30T01:15:13.370Z,1009.47
2017-01-30T01:16:13.295Z,1009.53
2017-01-30T01:17:13.271Z,1009.41
2017-01-30T01:18:13.244Z,1009.43
2017-01-30T01:19:13.221Z,1009.42
2017-01-30T01:20:13.194Z,1009.38
2017-01-30T01:21:13.227Z,1009.38
2017-01-30T01:22:13.144Z,1009.36
2017-01-30T01:23:13.120Z,1009.38
2017-01-30T01:24:13.142Z,1009.38
2017-01-30T01:25:13.067Z,1009.35
2017-01-30T01:26:13.043Z,1009.35
2017-01-30T01:27:13.018Z,1009.35
2017-01-30T01:28:12.992Z,1009.33
2017-01-30T01:29:12.970Z,1009.32
2017-01-30T01:30:12.943Z,1009.32
2017-01-30T01:31:12.915Z,1009.29
2017-01-30T01:32:12.890Z,1009.29
2017-01-30T01:33:12.870Z,1009.25
2017-01-30T01:34:12.838Z,1009.28
2017-01-30T01:35:12.814Z,1009.26
2017-01-30T01:36:12.791Z,1009.25
2017-01-30T01:37:12.767Z,1009.27
2017-01-30T01:38:12.738Z,1009.18
2017-01-30T01:39:12.712Z,1009.18
2017-01-30T01:40:12.688Z,1009.2
2017-01-30T01:41:12.685Z,1009.19
2017-01-30T01:42:12.637Z,1009.16
2017-01-30T01:43:12.614Z,1009.16
2017-01-30T01:44:12.597Z,1009.14
2017-01-30T01:45:12.566Z,1009.1
2017-01-30T01:46:12.536Z,1009.09
2017-01-30T01:47:12.513Z,1009.1
2017-01-30T01:48:12.487Z,1009.1
2017-01-30T01:49:12.462Z,1009.07
2017-01-30T01:50:12.440Z,1009.05
2017-01-30T01:51:12.413Z,1009.03
2017-01-30T01:52:12.388Z,1009
2017-01-30T01:53:12.362Z,1009.01
2017-01-30T01:54:12.337Z,1009.03
2017-01-30T01:55:12.314Z,1008.97
2017-01-30T01:56:12.297Z,1008.95
2017-01-30T01:57:12.260Z,1008.96
2017-01-30T01:58:12.236Z,1008.93
2017-01-30T01:59:12.213Z,1008.87
2017-01-30T02:00:12.190Z,1008.87
2017-01-30T02:01:12.162Z,1008.84
2017-01-30T02:02:12.140Z,1008.83
2017-01-30T02:03:12.117Z,1008.81
2017-01-30T02:04:12.087Z,1008.79
2017-01-30T02:05:12.063Z,1008.71
2017-01-30T02:06:12.040Z,1008.72
2017-01-30T02:07:12.013Z,1008.69
2017-01-30T02:08:11.988Z,1008.68
2017-01-30T02:09:11.964Z,1008.66
2017-01-30T02:10:11.938Z,1008.61
2017-01-30T02:11:11.915Z,1008.61
2017-01-30T02:12:11.886Z,1008.61
2017-01-30T02:13:11.862Z,1008.58
2017-01-30T02:14:11.837Z,1008.58
2017-01-30T02:15:11.862Z,1008.61
2017-01-30T02:16:11.785Z,1008.6
2017-01-30T02:17:11.761Z,1008.5
2017-01-30T02:18:11.741Z,1008.5
2017-01-30T02:19:11.709Z,1008.52
2017-01-30T02:20:11.686Z,1008.51
2017-01-30T02:21:11.661Z,1008.5
2017-01-30T02:22:11.635Z,1008.42
2017-01-30T02:23:11.610Z,1008.37
2017-01-30T02:24:11.583Z,1008.3
2017-01-30T02:25:11.607Z,1008.27
2017-01-30T02:26:11.533Z,1008.28
2017-01-30T02:27:11.507Z,1008.24
2017-01-30T02:28:11.484Z,1008.23
2017-01-30T02:29:11.459Z,1008.2
2017-01-30T02:30:11.432Z,1008.15
2017-01-30T02:31:11.406Z,1008.18
2017-01-30T02:32:11.381Z,1008.17
2017-01-30T02:33:11.356Z,1008.09
2017-01-30T02:34:11.337Z,1008.06
2017-01-30T02:35:11.304Z,1008.04
2017-01-30T02:36:11.278Z,1008.01
2017-01-30T02:37:11.253Z,1008.03
2017-01-30T02:38:11.228Z,1008
2017-01-30T02:39:11.202Z,1007.96
2017-01-30T02:40:11.183Z,1008.01
2017-01-30T02:41:11.153Z,1007.95
2017-01-30T02:42:11.125Z,1007.89
2017-01-30T02:43:11.102Z,1007.86
2017-01-30T02:44:11.076Z,1007.9
2017-01-30T02:45:11.052Z,1007.87
2017-01-30T02:46:11.029Z,1007.93
2017-01-30T02:47:11.005Z,1007.91
2017-01-30T02:48:10.973Z,1007.94
2017-01-30T02:49:10.948Z,1007.94
2017-01-30T02:50:10.923Z,1007.91
2017-01-30T02:51:10.895Z,1007.94
2017-01-30T02:52:10.872Z,1007.87
2017-01-30T02:53:10.845Z,1007.85
2017-01-30T02:54:10.820Z,1007.8
2017-01-30T02:55:10.794Z,1007.73
2017-01-30T02:56:10.769Z,1007.75
2017-01-30T02:57:10.949Z,1007.78
2017-01-30T02:58:10.717Z,1007.69
2017-01-30T02:59:10.743Z,1007.66
2017-01-30T03:00:10.665Z,1007.68
2017-01-30T03:01:10.639Z,1007.66
2017-01-30T03:02:10.619Z,1007.6
2017-01-30T03:03:10.589Z,1007.55
2017-01-30T03:04:10.563Z,1007.51
2017-01-30T03:05:10.539Z,1007.53
2017-01-30T03:06:10.514Z,1007.46
2017-01-30T03:07:10.489Z,1007.41
2017-01-30T03:08:10.511Z,1007.38
2017-01-30T03:09:10.437Z,1007.36
2017-01-30T03:10:10.411Z,1007.34
2017-01-30T03:11:10.386Z,1007.34
2017-01-30T03:12:10.360Z,1007.31
2017-01-30T03:13:10.339Z,1007.3
2017-01-30T03:14:10.311Z,1007.27
2017-01-30T03:15:10.287Z,1007.24
2017-01-30T03:16:10.260Z,1007.23
2017-01-30T03:17:10.233Z,1007.25
2017-01-30T03:18:10.204Z,1007.21
2017-01-30T03:19:10.183Z,1007.15
2017-01-30T03:20:10.155Z,1007.18
2017-01-30T03:21:10.187Z,1007.14
2017-01-30T03:22:10.108Z,1007.13
2017-01-30T03:23:10.377Z,1007.09
2017-01-30T03:24:10.057Z,1007.08
2017-01-30T03:25:10.027Z,1007.05
2017-01-30T03:26:10.052Z,1007.08
2017-01-30T03:27:09.976Z,1007.05
2017-01-30T03:28:09.954Z,1006.95
2017-01-30T03:29:09.930Z,1006.99
2017-01-30T03:30:09.900Z,1006.96
2017-01-30T03:31:09.877Z,1006.9
2017-01-30T03:32:09.851Z,1006.9
2017-01-30T03:33:09.825Z,1006.82
2017-01-30T03:34:09.803Z,1006.85
2017-01-30T03:35:09.775Z,1006.81
2017-01-30T03:36:09.749Z,1006.84
2017-01-30T03:37:09.723Z,1006.79
2017-01-30T03:38:09.700Z,1006.75
2017-01-30T03:39:09.671Z,1006.78
2017-01-30T03:40:09.648Z,1006.71
2017-01-30T03:41:09.621Z,1006.68
2017-01-30T03:42:09.598Z,1006.66
2017-01-30T03:43:09.569Z,1006.67
2017-01-30T03:44:09.545Z,1006.63
2017-01-30T03:45:09.520Z,1006.61
2017-01-30T03:46:09.495Z,1006.57
2017-01-30T03:47:09.465Z,1006.55
2017-01-30T03:48:09.442Z,1006.61
2017-01-30T03:49:09.423Z,1006.53
2017-01-30T03:50:09.391Z,1006.56
2017-01-30T03:51:09.370Z,1006.51
2017-01-30T03:52:09.341Z,1006.51
2017-01-30T03:53:09.313Z,1006.47
2017-01-30T03:54:09.290Z,1006.47
2017-01-30T03:55:09.266Z,1006.4
2017-01-30T03:56:09.243Z,1006.38
2017-01-30T03:57:09.214Z,1006.37
2017-01-30T03:58:09.188Z,1006.29
2017-01-30T03:59:09.163Z,1006.3
2017-01-30T04:00:09.144Z,1006.26
2017-01-30T04:01:09.112Z,1006.23
2017-01-30T04:02:09.087Z,1006.24
2017-01-30T04:03:09.065Z,1006.21
2017-01-30T04:04:09.038Z,1006.19
2017-01-30T04:05:09.011Z,1006.13
2017-01-30T04:06:08.986Z,1006.1
2017-01-30T04:07:08.962Z,1006.08
2017-01-30T04:08:08.935Z,1006.09
2017-01-30T04:09:08.908Z,1006.03
2017-01-30T04:10:08.883Z,1006.06
2017-01-30T04:11:08.864Z,1006.03
2017-01-30T04:12:08.832Z,1005.94
2017-01-30T04:13:08.807Z,1005.96
2017-01-30T04:14:08.782Z,1005.99
2017-01-30T04:15:08.756Z,1006
2017-01-30T04:16:08.733Z,1005.96
2017-01-30T04:17:08.705Z,1005.95
2017-01-30T04:18:08.682Z,1005.92
2017-01-30T04:19:08.657Z,1005.91
2017-01-30T04:20:08.629Z,1005.9
2017-01-30T04:21:08.905Z,1005.92
2017-01-30T04:22:08.578Z,1005.88
2017-01-30T04:23:08.552Z,1005.86
2017-01-30T04:24:08.528Z,1005.85
2017-01-30T04:25:08.504Z,1005.88
2017-01-30T04:26:08.480Z,1005.84
2017-01-30T04:27:08.452Z,1005.85
2017-01-30T04:28:08.423Z,1005.8
2017-01-30T04:29:08.850Z,1005.79
2017-01-30T04:30:08.374Z,1005.76
2017-01-30T04:31:08.347Z,1005.72
2017-01-30T04:32:08.322Z,1005.74
2017-01-30T04:33:08.297Z,1005.69
2017-01-30T04:34:08.276Z,1005.63
2017-01-30T04:35:08.248Z,1005.57
2017-01-30T04:36:08.225Z,1005.56
2017-01-30T04:37:08.198Z,1005.5
2017-01-30T04:38:08.169Z,1005.45
2017-01-30T04:39:08.147Z,1005.49
2017-01-30T04:40:08.129Z,1005.42
2017-01-30T04:41:08.097Z,1005.36
2017-01-30T04:42:08.070Z,1005.37
2017-01-30T04:43:08.044Z,1005.37
2017-01-30T04:44:08.019Z,1005.35
2017-01-30T04:45:07.994Z,1005.43
2017-01-30T04:46:07.967Z,1005.43
2017-01-30T04:47:07.948Z,1005.44
2017-01-30T04:48:08.008Z,1005.4
2017-01-30T04:49:07.898Z,1005.39
2017-01-30T04:50:07.868Z,1005.36
2017-01-30T04:51:07.843Z,1005.37
2017-01-30T04:52:07.817Z,1005.38
2017-01-30T04:53:07.793Z,1005.3
2017-01-30T04:54:07.769Z,1005.29
2017-01-30T04:55:07.744Z,1005.25
2017-01-30T04:56:07.720Z,1005.24
2017-01-30T04:57:07.691Z,1005.19
2017-01-30T04:58:07.666Z,1005.23
2017-01-30T04:59:07.639Z,1005.17
2017-01-30T05:00:07.666Z,1005.16
2017-01-30T05:01:07.589Z,1005.12
2017-01-30T05:02:07.563Z,1005.09
2017-01-30T05:03:07.538Z,1005.06
2017-01-30T05:04:07.514Z,1005.06
2017-01-30T05:05:07.541Z,1005.04
2017-01-30T05:06:07.465Z,1004.95
2017-01-30T05:07:07.444Z,1004.92
2017-01-30T05:08:07.416Z,1004.92
2017-01-30T05:09:07.390Z,1004.89
2017-01-30T05:10:07.414Z,1004.87
2017-01-30T05:11:07.336Z,1004.82
2017-01-30T05:12:07.311Z,1004.81
2017-01-30T05:13:07.287Z,1004.79
2017-01-30T05:14:07.262Z,1004.75
2017-01-30T05:15:07.237Z,1004.72
2017-01-30T05:16:07.210Z,1004.7
2017-01-30T05:17:07.191Z,1004.77
2017-01-30T05:18:07.159Z,1004.69
2017-01-30T05:19:07.137Z,1004.66
2017-01-30T05:20:07.113Z,1004.63
2017-01-30T05:21:07.089Z,1004.62
2017-01-30T05:22:07.056Z,1004.61
2017-01-30T05:23:07.035Z,1004.59
2017-01-30T05:24:07.007Z,1004.63
2017-01-30T05:25:06.982Z,1004.57
2017-01-30T05:26:06.956Z,1004.57
2017-01-30T05:27:06.933Z,1004.55
2017-01-30T05:28:06.904Z,1004.51
2017-01-30T05:29:06.880Z,1004.52
2017-01-30T05:30:06.908Z,1004.5
2017-01-30T05:31:06.829Z,1004.5
2017-01-30T05:32:07.006Z,1004.46
2017-01-30T05:33:06.780Z,1004.45
2017-01-30T05:34:06.753Z,1004.42
2017-01-30T05:35:06.728Z,1004.46
2017-01-30T05:36:06.703Z,1004.45
2017-01-30T05:37:06.676Z,1004.43
2017-01-30T05:38:06.650Z,1004.44
2017-01-30T05:39:06.630Z,1004.38
2017-01-30T05:40:06.603Z,1004.35
2017-01-30T05:41:06.576Z,1004.34
2017-01-30T05:42:06.548Z,1004.38
2017-01-30T05:43:06.527Z,1004.34
2017-01-30T05:44:06.503Z,1004.34
2017-01-30T05:45:06.473Z,1004.36
2017-01-30T05:46:06.448Z,1004.33
2017-01-30T05:47:06.424Z,1004.29
2017-01-30T05:48:06.398Z,1004.28
2017-01-30T05:49:06.372Z,1004.33
2017-01-30T05:50:06.647Z,1004.28
2017-01-30T05:51:06.325Z,1004.34
2017-01-30T05:52:06.497Z,1004.37
2017-01-30T05:53:06.271Z,1004.33
2017-01-30T05:54:06.245Z,1004.34
2017-01-30T05:55:06.221Z,1004.3
2017-01-30T05:56:06.196Z,1004.33
2017-01-30T05:57:06.170Z,1004.37
2017-01-30T05:58:06.142Z,1004.32
2017-01-30T05:59:06.119Z,1004.3
2017-01-30T06:00:06.099Z,1004.29
2017-01-30T06:01:06.071Z,1004.25
2017-01-30T06:02:06.043Z,1004.23
2017-01-30T06:03:06.018Z,1004.21
2017-01-30T06:04:06.000Z,1004.18
2017-01-30T06:05:05.973Z,1004.18
2017-01-30T06:06:05.950Z,1004.13
2017-01-30T06:07:05.916Z,1004.2
2017-01-30T06:08:05.894Z,1004.21
2017-01-30T06:09:05.907Z,1004.23
2017-01-30T06:10:05.841Z,1004.16
2017-01-30T06:11:05.819Z,1004.18
2017-01-30T06:12:05.792Z,1004.1
2017-01-30T06:13:05.763Z,1004.12
2017-01-30T06:14:05.742Z,1004.03
2017-01-30T06:15:05.718Z,1004.06
2017-01-30T06:16:05.691Z,1004.08
2017-01-30T06:17:05.670Z,1004.06
2017-01-30T06:18:05.645Z,1004.04
2017-01-30T06:19:05.617Z,1003.96
2017-01-30T06:20:05.590Z,1003.95
2017-01-30T06:21:05.565Z,1003.99
2017-01-30T06:22:05.539Z,1003.98
2017-01-30T06:23:05.515Z,1003.95
2017-01-30T06:24:05.491Z,1003.95
2017-01-30T06:25:05.469Z,1003.95
2017-01-30T06:26:05.445Z,1003.95
2017-01-30T06:27:05.417Z,1003.9
2017-01-30T06:28:05.389Z,1003.93
2017-01-30T06:29:05.364Z,1003.92
2017-01-30T06:30:05.347Z,1003.92
2017-01-30T06:31:05.315Z,1003.9
2017-01-30T06:32:05.290Z,1003.92
2017-01-30T06:33:05.268Z,1003.91
2017-01-30T06:34:05.245Z,1003.91
2017-01-30T06:35:05.214Z,1003.92
2017-01-30T06:36:05.197Z,1003.95
2017-01-30T06:37:05.168Z,1003.93
2017-01-30T06:38:05.144Z,1003.93
2017-01-30T06:39:05.113Z,1003.95
2017-01-30T06:40:05.095Z,1003.98
2017-01-30T06:41:05.065Z,1004.03
2017-01-30T06:42:05.047Z,1004.02
2017-01-30T06:43:05.014Z,1004.07
2017-01-30T06:44:04.988Z,1004.06
2017-01-30T06:45:05.013Z,1003.99
2017-01-30T06:46:04.936Z,1004.02
2017-01-30T06:47:04.912Z,1003.96
2017-01-30T06:48:04.887Z,1003.95
2017-01-30T06:49:04.912Z,1003.96
2017-01-30T06:50:04.837Z,1003.96
2017-01-30T06:51:04.814Z,1003.96
2017-01-30T06:52:04.787Z,1003.96
2017-01-30T06:53:04.761Z,1003.9
2017-01-30T06:54:04.737Z,1003.97
2017-01-30T06:55:04.713Z,1003.97
2017-01-30T06:56:04.688Z,1004.01
2017-01-30T06:57:04.668Z,1003.95
2017-01-30T06:58:04.638Z,1004
2017-01-30T06:59:04.612Z,1004.01
2017-01-30T07:00:04.587Z,1003.94
2017-01-30T07:01:04.564Z,1003.92
2017-01-30T07:02:04.543Z,1003.95
2017-01-30T07:03:04.518Z,1003.95
2017-01-30T07:04:04.486Z,1003.91
2017-01-30T07:05:04.461Z,1003.88
2017-01-30T07:06:04.439Z,1003.9
2017-01-30T07:07:04.413Z,1003.92
2017-01-30T07:08:04.387Z,1003.88
2017-01-30T07:09:04.360Z,1003.91
2017-01-30T07:10:04.337Z,1003.86
2017-01-30T07:11:04.312Z,1003.86
2017-01-30T07:12:04.585Z,1003.85
2017-01-30T07:13:04.261Z,1003.87
2017-01-30T07:14:04.238Z,1003.9
2017-01-30T07:15:04.247Z,1003.9
2017-01-30T07:16:04.186Z,1003.84
2017-01-30T07:17:04.181Z,1003.89
2017-01-30T07:18:04.136Z,1003.77
2017-01-30T07:19:04.110Z,1003.83
2017-01-30T07:20:04.085Z,1003.78
2017-01-30T07:21:04.060Z,1003.8
2017-01-30T07:22:04.037Z,1003.74
2017-01-30T07:23:04.009Z,1003.76
2017-01-30T07:24:03.987Z,1003.76
2017-01-30T07:25:03.965Z,1003.76
2017-01-30T07:26:03.936Z,1003.77
2017-01-30T07:27:03.911Z,1003.74
2017-01-30T07:28:03.887Z,1003.72
2017-01-30T07:29:03.861Z,1003.74
2017-01-30T07:30:03.838Z,1003.74
2017-01-30T07:31:03.814Z,1003.75
2017-01-30T07:32:03.786Z,1003.71
2017-01-30T07:33:03.759Z,1003.7
2017-01-30T07:34:03.734Z,1003.75
2017-01-30T07:35:03.710Z,1003.73
2017-01-30T07:36:03.686Z,1003.69
2017-01-30T07:37:03.659Z,1003.74
2017-01-30T07:38:03.639Z,1003.74
2017-01-30T07:39:03.611Z,1003.67
2017-01-30T07:40:03.595Z,1003.67
2017-01-30T07:41:03.560Z,1003.73
2017-01-30T07:42:03.536Z,1003.68
2017-01-30T07:43:03.512Z,1003.72
2017-01-30T07:44:03.481Z,1003.74
2017-01-30T07:45:03.462Z,1003.73
2017-01-30T07:46:03.435Z,1003.75
2017-01-30T07:47:03.409Z,1003.69
2017-01-30T07:48:03.394Z,1003.67
2017-01-30T07:49:03.359Z,1003.67
2017-01-30T07:50:03.333Z,1003.63
2017-01-30T07:51:03.313Z,1003.66
2017-01-30T07:52:03.289Z,1003.63
2017-01-30T07:53:03.265Z,1003.64
2017-01-30T07:54:03.232Z,1003.62
2017-01-30T07:55:03.207Z,1003.59
2017-01-30T07:56:03.184Z,1003.57
2017-01-30T07:57:03.163Z,1003.58
2017-01-30T07:58:03.390Z,1003.59
2017-01-30T07:59:03.107Z,1003.53
2017-01-30T08:00:03.085Z,1003.57
2017-01-30T08:01:03.059Z,1003.57
2017-01-30T08:02:03.035Z,1003.54
2017-01-30T08:03:03.008Z,1003.59
2017-01-30T08:04:02.993Z,1003.51
2017-01-30T08:05:02.960Z,1003.59
2017-01-30T08:06:02.935Z,1003.55
2017-01-30T08:07:02.905Z,1003.51
2017-01-30T08:08:02.884Z,1003.49
2017-01-30T08:09:02.860Z,1003.56
2017-01-30T08:10:02.830Z,1003.56
2017-01-30T08:11:02.810Z,1003.53
2017-01-30T08:12:02.781Z,1003.48
2017-01-30T08:13:02.757Z,1003.49
2017-01-30T08:14:02.731Z,1003.52
2017-01-30T08:15:02.708Z,1003.54
2017-01-30T08:16:02.683Z,1003.56
2017-01-30T08:17:02.755Z,1003.55
2017-01-30T08:18:02.645Z,1003.55
2017-01-30T08:19:02.614Z,1003.57
2017-01-30T08:20:02.584Z,1003.56
2017-01-30T08:21:02.555Z,1003.51
2017-01-30T08:22:02.582Z,1003.51
2017-01-30T08:23:02.504Z,1003.51
2017-01-30T08:24:02.484Z,1003.51
2017-01-30T08:25:02.456Z,1003.5
2017-01-30T08:26:02.433Z,1003.51
2017-01-30T08:27:02.457Z,1003.5
2017-01-30T08:28:02.387Z,1003.44
2017-01-30T08:29:02.359Z,1003.49
2017-01-30T08:30:02.331Z,1003.47
2017-01-30T08:31:02.306Z,1003.48
2017-01-30T08:32:02.283Z,1003.45
2017-01-30T08:33:02.255Z,1003.45
2017-01-30T08:34:02.231Z,1003.4
2017-01-30T08:35:02.215Z,1003.43
2017-01-30T08:36:02.179Z,1003.43
2017-01-30T08:37:02.155Z,1003.38
2017-01-30T08:38:02.141Z,1003.38
2017-01-30T08:39:02.103Z,1003.39
2017-01-30T08:40:02.082Z,1003.39
2017-01-30T08:41:02.055Z,1003.33
2017-01-30T08:42:02.030Z,1003.31
2017-01-30T08:43:02.004Z,1003.32
2017-01-30T08:44:02.022Z,1003.32
2017-01-30T08:45:01.955Z,1003.29
2017-01-30T08:46:01.934Z,1003.32
2017-01-30T08:47:01.905Z,1003.25
2017-01-30T08:48:01.879Z,1003.29
2017-01-30T08:49:01.855Z,1003.29
2017-01-30T08:50:01.829Z,1003.31
2017-01-30T08:51:01.806Z,1003.27
2017-01-30T08:52:01.780Z,1003.24
2017-01-30T08:53:01.761Z,1003.3
2017-01-30T08:54:01.729Z,1003.23
2017-01-30T08:55:01.704Z,1003.23
2017-01-30T08:56:01.678Z,1003.24
2017-01-30T08:57:01.652Z,1003.2
2017-01-30T08:58:01.627Z,1003.2
2017-01-30T08:59:01.606Z,1003.21
2017-01-30T09:00:01.628Z,1003.23
2017-01-30T09:01:01.548Z,1003.24
2017-01-30T09:02:01.528Z,1003.14
2017-01-30T09:03:01.502Z,1003.16
2017-01-30T09:04:01.477Z,1003.07
2017-01-30T09:05:01.455Z,1003.13
2017-01-30T09:06:01.428Z,1003.12
2017-01-30T09:07:01.404Z,1003.05
2017-01-30T09:08:01.376Z,1003.05
2017-01-30T09:09:01.355Z,1003.01
2017-01-30T09:10:01.328Z,1003.03
2017-01-30T09:11:01.304Z,1003.03
2017-01-30T09:12:01.278Z,1002.95
2017-01-30T09:13:01.254Z,1002.99
2017-01-30T09:14:01.230Z,1002.98
2017-01-30T09:15:01.202Z,1002.96
2017-01-30T09:16:01.177Z,1002.94
2017-01-30T09:17:01.153Z,1002.95
2017-01-30T09:18:01.128Z,1002.91
2017-01-30T09:19:01.100Z,1002.92
2017-01-30T09:20:01.080Z,1002.92
2017-01-30T09:21:01.055Z,1002.94
2017-01-30T09:22:01.032Z,1002.9
2017-01-30T09:23:01.006Z,1002.92
2017-01-30T09:24:00.980Z,1002.9
2017-01-30T09:25:00.954Z,1002.9
2017-01-30T09:26:00.928Z,1002.94
2017-01-30T09:27:00.909Z,1002.91
2017-01-30T09:28:00.880Z,1002.89
2017-01-30T09:29:00.854Z,1002.88
2017-01-30T09:30:00.833Z,1002.84
2017-01-30T09:31:00.808Z,1002.91
2017-01-30T09:32:00.775Z,1002.81
2017-01-30T09:33:00.761Z,1002.83
2017-01-30T09:34:00.729Z,1002.81
2017-01-30T09:35:00.705Z,1002.81
2017-01-30T09:36:00.680Z,1002.83
2017-01-30T09:37:00.656Z,1002.77
2017-01-30T09:38:00.629Z,1002.84
2017-01-30T09:39:00.608Z,1002.8
2017-01-30T09:40:00.584Z,1002.81
2017-01-30T09:41:00.859Z,1002.78
2017-01-30T09:42:00.534Z,1002.86
2017-01-30T09:43:00.511Z,1002.84
2017-01-30T09:44:00.487Z,1002.85
2017-01-30T09:45:00.460Z,1002.8
2017-01-30T09:46:00.436Z,1002.81
2017-01-30T09:47:00.411Z,1002.8
2017-01-30T09:48:00.388Z,1002.82
2017-01-30T09:49:00.360Z,1002.83
2017-01-30T09:50:00.340Z,1002.79
2017-01-30T09:51:00.365Z,1002.79
2017-01-30T09:52:00.287Z,1002.73
2017-01-30T09:53:00.272Z,1002.78
2017-01-30T09:54:00.240Z,1002.78
2017-01-30T09:55:00.219Z,1002.83
2017-01-30T09:56:00.188Z,1002.78
2017-01-30T09:57:00.165Z,1002.73
2017-01-30T09:58:00.140Z,1002.76
2017-01-30T09:59:00.119Z,1002.79
2017-01-30T10:00:00.088Z,1002.77
2017-01-30T10:01:00.067Z,1002.74
2017-01-30T10:02:00.041Z,1002.75
2017-01-30T10:03:00.021Z,1002.71
2017-01-30T10:03:59.990Z,1002.69
2017-01-30T10:04:59.969Z,1002.71
2017-01-30T10:05:59.943Z,1002.68
2017-01-30T10:07:00.143Z,1002.69
2017-01-30T10:07:59.895Z,1002.67
2017-01-30T10:08:59.872Z,1002.68
2017-01-30T10:09:59.841Z,1002.63
2017-01-30T10:10:59.819Z,1002.68
2017-01-30T10:11:59.795Z,1002.71
2017-01-30T10:12:59.775Z,1002.63
2017-01-30T10:13:59.746Z,1002.66
2017-01-30T10:14:59.723Z,1002.69
2017-01-30T10:15:59.698Z,1002.69
2017-01-30T10:16:59.680Z,1002.64
2017-01-30T10:17:59.647Z,1002.69
2017-01-30T10:18:59.629Z,1002.65
2017-01-30T10:19:59.600Z,1002.63
2017-01-30T10:20:59.573Z,1002.61
2017-01-30T10:21:59.551Z,1002.56
2017-01-30T10:22:59.530Z,1002.61
2017-01-30T10:23:59.508Z,1002.63
2017-01-30T10:24:59.479Z,1002.62
2017-01-30T10:25:59.450Z,1002.55
2017-01-30T10:26:59.428Z,1002.59
2017-01-30T10:27:59.408Z,1002.57
2017-01-30T10:28:59.382Z,1002.56
2017-01-30T10:29:59.356Z,1002.53
2017-01-30T10:30:59.331Z,1002.54
2017-01-30T10:31:59.307Z,1002.55
2017-01-30T10:32:59.283Z,1002.56
2017-01-30T10:33:59.261Z,1002.51
2017-01-30T10:34:59.233Z,1002.52
2017-01-30T10:35:59.211Z,1002.57
2017-01-30T10:36:59.184Z,1002.55
2017-01-30T10:37:59.161Z,1002.52
2017-01-30T10:38:59.134Z,1002.55
2017-01-30T10:39:59.118Z,1002.51
2017-01-30T10:40:59.090Z,1002.57
2017-01-30T10:41:59.064Z,1002.52
2017-01-30T10:42:59.036Z,1002.55
2017-01-30T10:43:59.015Z,1002.53
2017-01-30T10:44:58.993Z,1002.52
2017-01-30T10:45:58.966Z,1002.45
2017-01-30T10:46:59.000Z,1002.46
2017-01-30T10:47:58.968Z,1002.49
2017-01-30T10:48:58.896Z,1002.47
2017-01-30T10:49:58.873Z,1002.49
2017-01-30T10:50:58.857Z,1002.44
2017-01-30T10:51:58.823Z,1002.52
2017-01-30T10:52:58.798Z,1002.45
2017-01-30T10:53:58.772Z,1002.44
2017-01-30T10:54:58.748Z,1002.42
2017-01-30T10:55:58.728Z,1002.41
2017-01-30T10:56:58.703Z,1002.42
2017-01-30T10:57:58.728Z,1002.37
2017-01-30T10:58:58.655Z,1002.38
2017-01-30T10:59:58.630Z,1002.42
2017-01-30T11:00:58.607Z,1002.38
2017-01-30T11:01:58.582Z,1002.39
2017-01-30T11:02:58.561Z,1002.39
2017-01-30T11:03:58.551Z,1002.34
2017-01-30T11:04:58.516Z,1002.37
2017-01-30T11:05:58.483Z,1002.35
2017-01-30T11:06:58.463Z,1002.29
2017-01-30T11:07:58.437Z,1002.3
2017-01-30T11:08:58.414Z,1002.23
2017-01-30T11:09:58.389Z,1002.28
2017-01-30T11:10:58.372Z,1002.24
2017-01-30T11:11:58.340Z,1002.21
2017-01-30T11:12:58.319Z,1002.21
2017-01-30T11:13:58.294Z,1002.12
2017-01-30T11:14:58.348Z,1002.15
2017-01-30T11:15:58.245Z,1002.14
2017-01-30T11:16:58.222Z,1002.08
2017-01-30T11:17:58.203Z,1002.08
2017-01-30T11:18:58.181Z,1002.1
2017-01-30T11:19:58.151Z,1002.14
2017-01-30T11:20:58.127Z,1002.08
2017-01-30T11:21:58.103Z,1002.07
2017-01-30T11:22:58.082Z,1002.04
2017-01-30T11:23:58.056Z,1002.04
2017-01-30T11:24:58.036Z,1002
2017-01-30T11:25:58.009Z,1002.03
2017-01-30T11:26:57.989Z,1002.02
2017-01-30T11:27:57.960Z,1002.03
2017-01-30T11:28:57.986Z,1002.06
2017-01-30T11:29:57.913Z,1002.08
2017-01-30T11:30:57.888Z,1002.05
2017-01-30T11:31:57.867Z,1002.01
2017-01-30T11:32:57.840Z,1002.05
2017-01-30T11:33:57.814Z,1002.02
2017-01-30T11:34:57.791Z,1002.04
2017-01-30T11:35:57.768Z,1002.01
2017-01-30T11:36:57.793Z,1002.05
2017-01-30T11:37:57.718Z,1002.02
2017-01-30T11:38:57.696Z,1002
2017-01-30T11:39:57.679Z,1001.99
2017-01-30T11:40:57.648Z,1001.96
2017-01-30T11:41:57.672Z,1001.99
2017-01-30T11:42:57.599Z,1001.98
2017-01-30T11:43:57.574Z,1001.94
2017-01-30T11:44:57.550Z,1001.98
2017-01-30T11:45:57.526Z,1001.96
2017-01-30T11:46:57.503Z,1001.96
2017-01-30T11:47:57.480Z,1001.96
2017-01-30T11:48:57.453Z,1001.97
2017-01-30T11:49:57.432Z,1001.94
2017-01-30T11:50:57.409Z,1001.95
2017-01-30T11:51:57.434Z,1001.98
2017-01-30T11:52:57.363Z,1001.94
2017-01-30T11:53:57.338Z,1001.96
2017-01-30T11:54:57.310Z,1001.96
2017-01-30T11:55:57.287Z,1001.88
2017-01-30T11:56:57.266Z,1001.9
2017-01-30T11:57:57.290Z,1001.86
2017-01-30T11:58:57.215Z,1001.83
2017-01-30T11:59:57.242Z,1001.87
2017-01-30T12:00:57.167Z,1001.8
2017-01-30T12:01:57.146Z,1001.84
2017-01-30T12:02:57.121Z,1001.82
2017-01-30T12:03:57.097Z,1001.8
2017-01-30T12:04:57.090Z,1001.81
2017-01-30T12:05:57.053Z,1001.78
2017-01-30T12:06:57.028Z,1001.8
2017-01-30T12:07:57.005Z,1001.75